createdAt,value
2022-12-18T00:00:08.137Z,0.46
2022-12-18T00:02:36.610Z,0.45
2022-12-18T00:05:05.698Z,0.58
2022-12-18T00:07:36.216Z,0.38
2022-12-18T00:10:05.422Z,0.41
2022-12-18T00:12:34.828Z,0.44
2022-12-18T00:15:04.903Z,0.30
2022-12-18T00:17:33.430Z,0.42
2022-12-18T00:20:01.922Z,0.37
2022-12-18T00:22:30.310Z,0.48
2022-12-18T00:24:58.748Z,0.49
2022-12-18T00:27:27.102Z,0.35
2022-12-18T00:29:55.489Z,0.32
2022-12-18T00:32:23.914Z,0.44
2022-12-18T00:34:52.332Z,0.65
2022-12-18T00:37:20.715Z,0.61
2022-12-18T00:39:50.267Z,0.54
2022-12-18T00:42:37.176Z,0.48
2022-12-18T00:45:12.109Z,0.41
2022-12-18T00:47:41.447Z,0.44
2022-12-18T00:50:10.751Z,0.19
2022-12-18T00:52:39.180Z,0.27
2022-12-18T00:55:08.039Z,0.31
2022-12-18T00:57:36.662Z,0.33
2022-12-18T01:00:07.236Z,0.38
2022-12-18T01:02:36.041Z,0.36
2022-12-18T01:05:05.464Z,0.36
2022-12-18T01:07:33.886Z,0.45
2022-12-18T01:10:02.309Z,0.44
2022-12-18T01:12:30.708Z,0.34
2022-12-18T01:14:59.256Z,0.37
2022-12-18T01:17:27.763Z,0.32
2022-12-18T01:19:56.182Z,0.29
2022-12-18T01:22:24.745Z,0.36
2022-12-18T01:24:53.150Z,0.41
2022-12-18T01:27:21.605Z,0.47
2022-12-18T01:29:50.264Z,0.46
2022-12-18T01:32:18.714Z,0.33
2022-12-18T01:34:47.186Z,0.18
2022-12-18T01:37:15.639Z,0.15
2022-12-18T01:39:44.127Z,0.14
2022-12-18T01:42:15.696Z,0.11
2022-12-18T01:45:00.898Z,0.39
2022-12-18T01:47:44.603Z,0.31
2022-12-18T01:50:34.726Z,0.25
2022-12-18T01:53:08.900Z,0.19
2022-12-18T01:55:43.884Z,0.31
2022-12-18T01:58:12.397Z,0.26
2022-12-18T02:00:41.035Z,0.35
2022-12-18T02:03:09.792Z,0.22
2022-12-18T02:05:50.283Z,0.07
2022-12-18T02:08:29.720Z,0.45
2022-12-18T02:11:29.803Z,0.30
2022-12-18T02:13:58.140Z,0.24
2022-12-18T02:16:41.276Z,0.19
2022-12-18T02:19:30.143Z,0.31
2022-12-18T02:22:11.304Z,0.13
2022-12-18T02:25:07.453Z,0.18
2022-12-18T02:27:37.955Z,0.08
2022-12-18T02:30:09.193Z,0.03
2022-12-18T02:32:43.854Z,0.06
2022-12-18T02:35:16.382Z,0.03
2022-12-18T02:37:47.800Z,-0.04
2022-12-18T02:40:18.231Z,-0.04
2022-12-18T02:42:47.580Z,0.02
2022-12-18T02:45:16.097Z,-0.04
2022-12-18T02:47:48.300Z,0.01
2022-12-18T02:50:16.610Z,0.16
2022-12-18T02:53:02.130Z,0.19
2022-12-18T02:55:51.673Z,0.18
2022-12-18T02:58:31.354Z,0.02
2022-12-18T03:01:08.302Z,-0.17
2022-12-18T03:03:45.162Z,-0.24
2022-12-18T03:06:50.722Z,0.07
2022-12-18T03:09:27.462Z,-0.10
2022-12-18T03:12:21.393Z,-0.08
2022-12-18T03:15:20.137Z,-0.17
2022-12-18T03:18:02.481Z,-0.15
2022-12-18T03:20:33.818Z,-0.17
2022-12-18T03:23:12.036Z,-0.16
2022-12-18T03:25:44.010Z,-0.11
2022-12-18T03:28:20.661Z,-0.24
2022-12-18T03:30:54.804Z,-0.26
2022-12-18T03:33:36.124Z,-0.49
2022-12-18T03:36:05.052Z,-0.55
2022-12-18T03:38:34.742Z,-0.46
2022-12-18T03:41:06.173Z,-0.46
2022-12-18T03:44:05.028Z,-0.34
2022-12-18T03:46:53.636Z,-0.38
2022-12-18T03:49:44.036Z,-0.37
2022-12-18T03:52:27.615Z,-0.28
2022-12-18T03:54:58.844Z,-0.23
2022-12-18T03:57:30.547Z,-0.13
2022-12-18T04:00:07.356Z,-0.10
2022-12-18T04:02:39.122Z,-0.12
2022-12-18T04:05:09.880Z,-0.21
2022-12-18T04:07:40.187Z,-0.16
2022-12-18T04:10:12.348Z,-0.14
2022-12-18T04:12:40.782Z,-0.30
2022-12-18T04:15:10.282Z,-0.35
2022-12-18T04:17:40.046Z,-0.34
2022-12-18T04:20:09.830Z,-0.19
2022-12-18T04:22:38.246Z,-0.22
2022-12-18T04:25:06.975Z,-0.34
2022-12-18T04:27:35.672Z,-0.42
2022-12-18T04:30:04.654Z,-0.30
2022-12-18T04:32:34.727Z,-0.32
2022-12-18T04:35:05.152Z,-0.35
2022-12-18T04:37:33.560Z,-0.17
2022-12-18T04:40:03.031Z,-0.19
2022-12-18T04:42:31.516Z,-0.18
2022-12-18T04:44:59.986Z,-0.33
2022-12-18T04:47:28.444Z,-0.39
2022-12-18T04:49:57.010Z,-0.21
2022-12-18T04:52:25.566Z,-0.24
2022-12-18T04:54:53.982Z,-0.33
2022-12-18T04:57:22.389Z,-0.22
2022-12-18T04:59:50.844Z,-0.39
2022-12-18T05:02:19.435Z,-0.38
2022-12-18T05:04:48.111Z,-0.27
2022-12-18T05:07:16.670Z,-0.35
2022-12-18T05:09:45.089Z,-0.35
2022-12-18T05:12:13.647Z,-0.48
2022-12-18T05:14:42.180Z,-0.51
2022-12-18T05:17:10.716Z,-0.54
2022-12-18T05:19:39.406Z,-0.38
2022-12-18T05:22:07.766Z,-0.39
2022-12-18T05:24:36.407Z,-0.40
2022-12-18T05:27:04.893Z,-0.28
2022-12-18T05:29:33.307Z,-0.30
2022-12-18T05:32:01.818Z,-0.28
2022-12-18T05:34:30.290Z,-0.23
2022-12-18T05:36:58.677Z,-0.21
2022-12-18T05:39:27.211Z,-0.10
2022-12-18T05:41:55.606Z,-0.16
2022-12-18T05:44:24.072Z,-0.33
2022-12-18T05:46:52.440Z,-0.35
2022-12-18T05:49:20.974Z,-0.35
2022-12-18T05:51:49.345Z,-0.44
2022-12-18T05:54:17.966Z,-0.36
2022-12-18T05:56:48.787Z,-0.35
2022-12-18T05:59:17.555Z,-0.28
2022-12-18T06:01:46.811Z,-0.34
2022-12-18T06:04:15.593Z,-0.34
2022-12-18T06:06:44.117Z,-0.25
2022-12-18T06:09:12.879Z,-0.39
2022-12-18T06:11:41.402Z,-0.47
2022-12-18T06:14:10.809Z,-0.46
2022-12-18T06:16:39.285Z,-0.22
2022-12-18T06:19:07.726Z,-0.09
2022-12-18T06:21:36.218Z,-0.25
2022-12-18T06:24:04.994Z,-0.32
2022-12-18T06:26:33.435Z,-0.36
2022-12-18T06:29:01.794Z,-0.38
2022-12-18T06:31:30.308Z,-0.40
2022-12-18T06:33:59.298Z,-0.39
2022-12-18T06:36:27.741Z,-0.44
2022-12-18T06:38:58.435Z,-0.49
2022-12-18T06:41:27.871Z,-0.60
2022-12-18T06:43:59.707Z,-0.65
2022-12-18T06:46:28.317Z,-0.70
2022-12-18T06:48:56.751Z,-0.71
2022-12-18T06:51:25.636Z,-0.75
2022-12-18T06:53:55.054Z,-0.79
2022-12-18T06:56:23.453Z,-0.74
2022-12-18T06:58:51.887Z,-0.53
2022-12-18T07:01:20.599Z,-0.58
2022-12-18T07:03:54.557Z,-0.80
2022-12-18T07:06:25.584Z,-0.76
2022-12-18T07:08:55.259Z,-0.74
2022-12-18T07:11:24.242Z,-0.69
2022-12-18T07:13:53.400Z,-0.67
2022-12-18T07:16:25.381Z,-0.64
2022-12-18T07:18:56.461Z,-0.64
2022-12-18T07:21:26.174Z,-0.53
2022-12-18T07:23:54.895Z,-0.48
2022-12-18T07:26:24.557Z,-0.49
2022-12-18T07:28:56.565Z,-0.63
2022-12-18T07:31:25.561Z,-0.59
2022-12-18T07:33:54.233Z,-0.49
2022-12-18T07:36:22.626Z,-0.34
2022-12-18T07:38:52.925Z,-0.29
2022-12-18T07:41:26.462Z,-0.27
2022-12-18T07:43:54.905Z,-0.46
2022-12-18T07:46:23.810Z,-0.44
2022-12-18T07:48:52.222Z,-0.13
2022-12-18T07:51:20.695Z,-0.34
2022-12-18T07:53:52.472Z,-0.16
2022-12-18T07:56:30.327Z,-0.19
2022-12-18T07:59:00.952Z,0.14
2022-12-18T08:01:29.561Z,0.04
2022-12-18T08:03:59.581Z,-0.08
2022-12-18T08:06:28.029Z,-0.04
2022-12-18T08:08:57.062Z,0.17
2022-12-18T08:11:28.560Z,0.18
2022-12-18T08:13:58.391Z,0.19
2022-12-18T08:16:27.227Z,0.34
2022-12-18T08:18:57.140Z,0.39
2022-12-18T08:21:30.548Z,0.38
2022-12-18T08:24:01.814Z,0.12
2022-12-18T08:26:32.518Z,0.05
2022-12-18T08:29:01.818Z,0.10
2022-12-18T08:31:32.132Z,0.07
2022-12-18T08:34:00.828Z,-0.01
2022-12-18T08:36:29.486Z,-0.08
2022-12-18T08:38:58.119Z,0.02
2022-12-18T08:41:27.492Z,-0.35
2022-12-18T08:44:14.706Z,-0.62
2022-12-18T08:46:44.414Z,-0.61
2022-12-18T08:49:12.968Z,-0.76
2022-12-18T08:51:42.473Z,-0.77
2022-12-18T08:54:14.571Z,-0.89
2022-12-18T08:56:43.060Z,-0.99
2022-12-18T08:59:17.572Z,-0.86
2022-12-18T09:01:48.958Z,-0.66
2022-12-18T09:04:17.857Z,-0.58
2022-12-18T09:06:46.633Z,-0.50
2022-12-18T09:09:15.315Z,-0.49
2022-12-18T09:11:45.843Z,-0.38
2022-12-18T09:14:14.613Z,-0.47
2022-12-18T09:16:43.398Z,-0.28
2022-12-18T09:19:12.179Z,-0.25
2022-12-18T09:21:44.796Z,-0.12
2022-12-18T09:24:17.503Z,-0.22
2022-12-18T09:26:47.319Z,-0.06
2022-12-18T09:29:17.720Z,-0.19
2022-12-18T09:31:48.102Z,-0.22
2022-12-18T09:34:17.691Z,-0.17
2022-12-18T09:36:46.426Z,-0.15
2022-12-18T09:39:16.020Z,0.06
2022-12-18T09:41:56.771Z,0.14
2022-12-18T09:44:32.487Z,0.03
2022-12-18T09:47:13.500Z,0.11
2022-12-18T09:49:50.303Z,-0.06
2022-12-18T09:52:31.481Z,0.12
2022-12-18T09:55:06.323Z,0.19
2022-12-18T09:57:41.871Z,0.26
2022-12-18T10:00:20.609Z,0.18
2022-12-18T10:02:51.790Z,0.23
2022-12-18T10:05:31.817Z,0.39
2022-12-18T10:08:08.802Z,0.63
2022-12-18T10:11:04.289Z,0.65
2022-12-18T10:13:46.996Z,0.56
2022-12-18T10:16:27.317Z,0.73
2022-12-18T10:19:11.186Z,0.64
2022-12-18T10:21:50.462Z,0.69
2022-12-18T10:24:33.518Z,0.66
2022-12-18T10:27:18.963Z,0.89
2022-12-18T10:29:47.738Z,1.00
2022-12-18T10:32:22.786Z,1.05
2022-12-18T10:35:00.172Z,1.24
2022-12-18T10:37:30.963Z,1.35
2022-12-18T10:40:18.238Z,1.34
2022-12-18T10:43:14.488Z,1.42
2022-12-18T10:45:58.279Z,1.58
2022-12-18T10:48:27.810Z,1.38
2022-12-18T10:51:12.959Z,1.44
2022-12-18T10:53:43.624Z,1.38
2022-12-18T10:56:12.751Z,1.29
2022-12-18T10:58:41.554Z,1.32
2022-12-18T11:01:21.260Z,1.64
2022-12-18T11:04:01.671Z,1.71
2022-12-18T11:06:30.860Z,1.77
2022-12-18T11:09:19.689Z,1.72
2022-12-18T11:11:54.364Z,1.81
2022-12-18T11:14:26.003Z,1.81
2022-12-18T11:17:24.733Z,1.84
2022-12-18T11:19:45.039Z,1.89
2022-12-18T11:22:28.964Z,2.08
2022-12-18T11:25:32.152Z,1.98
2022-12-18T11:28:00.566Z,2.00
2022-12-18T11:30:34.821Z,2.12
2022-12-18T11:33:21.813Z,2.09
2022-12-18T11:36:00.901Z,2.06
2022-12-18T11:38:39.084Z,2.19
2022-12-18T11:41:57.536Z,2.33
2022-12-18T11:44:46.547Z,2.11
2022-12-18T11:47:40.140Z,2.31
2022-12-18T11:50:18.507Z,2.39
2022-12-18T11:52:48.501Z,2.40
2022-12-18T11:55:35.075Z,2.45
2022-12-18T11:58:31.139Z,2.55
2022-12-18T12:01:17.573Z,2.64
2022-12-18T12:03:49.684Z,2.58
2022-12-18T12:06:40.094Z,2.47
2022-12-18T12:09:16.630Z,2.66
2022-12-18T12:12:15.387Z,2.78
2022-12-18T12:14:43.824Z,2.64
2022-12-18T12:17:27.435Z,2.65
2022-12-18T12:20:18.006Z,2.87
2022-12-18T12:23:00.260Z,2.88
2022-12-18T12:26:05.195Z,2.94
2022-12-18T12:28:36.753Z,2.97
2022-12-18T12:31:47.690Z,2.88
2022-12-18T12:34:42.567Z,2.99
2022-12-18T12:37:33.748Z,3.06
2022-12-18T12:40:15.361Z,3.09
2022-12-18T12:43:14.361Z,3.16
2022-12-18T12:45:54.893Z,3.18
2022-12-18T12:48:26.193Z,3.18
2022-12-18T12:50:56.081Z,3.20
2022-12-18T12:53:29.911Z,3.26
2022-12-18T12:55:58.967Z,3.37
2022-12-18T12:58:46.337Z,3.39
2022-12-18T13:01:42.034Z,3.36
2022-12-18T13:04:37.392Z,3.28
2022-12-18T13:07:17.415Z,3.30
2022-12-18T13:10:13.200Z,3.20
2022-12-18T13:12:56.805Z,3.20
2022-12-18T13:15:55.693Z,3.21
2022-12-18T13:18:26.326Z,3.37
2022-12-18T13:20:58.488Z,3.41
2022-12-18T13:23:37.386Z,3.50
2022-12-18T13:26:11.951Z,3.37
2022-12-18T13:28:46.927Z,3.52
2022-12-18T13:31:41.967Z,3.58
2022-12-18T13:34:28.294Z,3.68
2022-12-18T13:37:32.839Z,3.66
2022-12-18T13:40:01.355Z,3.49
2022-12-18T13:42:59.815Z,3.59
2022-12-18T13:45:47.575Z,3.49
2022-12-18T13:48:25.119Z,3.61
2022-12-18T13:51:01.292Z,3.60
2022-12-18T13:53:52.822Z,3.60
2022-12-18T13:56:30.962Z,3.68
2022-12-18T13:59:24.899Z,3.68
2022-12-18T14:02:06.331Z,3.68
2022-12-18T14:04:36.911Z,3.57
2022-12-18T14:07:11.536Z,3.56
2022-12-18T14:09:49.870Z,3.53
2022-12-18T14:12:57.692Z,3.62
2022-12-18T14:15:56.656Z,3.63
2022-12-18T14:18:40.105Z,3.51
2022-12-18T14:21:30.677Z,3.41
2022-12-18T14:24:14.719Z,3.53
2022-12-18T14:26:44.329Z,3.66
2022-12-18T14:29:31.019Z,3.79
2022-12-18T14:32:17.747Z,3.80
2022-12-18T14:34:55.049Z,3.66
2022-12-18T14:37:28.314Z,3.69
2022-12-18T14:39:59.793Z,3.72
2022-12-18T14:42:29.468Z,3.80
2022-12-18T14:45:41.793Z,3.69
2022-12-18T14:48:39.777Z,3.76
2022-12-18T14:51:11.254Z,3.76
2022-12-18T14:53:54.148Z,3.80
2022-12-18T14:56:30.106Z,3.93
2022-12-18T14:59:15.173Z,3.84
2022-12-18T15:01:51.525Z,3.88
2022-12-18T15:04:41.709Z,3.89
2022-12-18T15:07:17.794Z,3.93
2022-12-18T15:10:17.793Z,3.96
2022-12-18T15:13:07.040Z,3.88
2022-12-18T15:15:38.544Z,3.74
2022-12-18T15:18:11.458Z,3.83
2022-12-18T15:20:54.356Z,3.92
2022-12-18T15:23:23.004Z,3.82
2022-12-18T15:26:06.909Z,3.73
2022-12-18T15:28:44.126Z,3.72
2022-12-18T15:31:13.089Z,3.54
2022-12-18T15:34:00.559Z,3.61
2022-12-18T15:36:30.415Z,3.78
2022-12-18T15:39:04.671Z,3.87
2022-12-18T15:41:37.108Z,3.66
2022-12-18T15:44:23.861Z,3.72
2022-12-18T15:46:52.232Z,3.83
2022-12-18T15:49:20.768Z,3.80
2022-12-18T15:51:54.188Z,3.75
2022-12-18T15:54:42.792Z,3.70
2022-12-18T15:57:24.097Z,3.81
2022-12-18T15:59:54.156Z,3.85
2022-12-18T16:02:23.935Z,3.86
2022-12-18T16:04:53.324Z,3.79
2022-12-18T16:07:25.122Z,3.82
2022-12-18T16:09:55.186Z,3.71
2022-12-18T16:12:26.484Z,3.67
2022-12-18T16:14:54.930Z,3.62
2022-12-18T16:17:23.405Z,3.71
2022-12-18T16:19:51.811Z,3.58
2022-12-18T16:22:25.871Z,3.74
2022-12-18T16:24:55.511Z,3.86
2022-12-18T16:27:25.091Z,3.82
2022-12-18T16:29:53.506Z,3.94
2022-12-18T16:32:23.405Z,3.89
2022-12-18T16:34:52.063Z,3.82
2022-12-18T16:37:20.524Z,3.81
2022-12-18T16:39:48.982Z,3.70
2022-12-18T16:42:20.108Z,3.65
2022-12-18T16:44:50.184Z,3.79
2022-12-18T16:47:19.088Z,3.88
2022-12-18T16:49:49.064Z,3.83
2022-12-18T16:52:18.709Z,3.79
2022-12-18T16:54:47.335Z,3.79
2022-12-18T16:57:19.058Z,3.83
2022-12-18T16:59:47.791Z,3.83
2022-12-18T17:02:22.830Z,3.85
2022-12-18T17:04:57.415Z,3.89
2022-12-18T17:07:26.962Z,3.90
2022-12-18T17:09:56.388Z,3.90
2022-12-18T17:12:25.079Z,3.89
2022-12-18T17:14:53.578Z,3.80
2022-12-18T17:17:23.286Z,3.72
2022-12-18T17:19:52.810Z,3.95
2022-12-18T17:22:23.173Z,4.00
2022-12-18T17:24:51.804Z,4.10
2022-12-18T17:27:20.240Z,4.19
2022-12-18T17:29:49.234Z,4.20
2022-12-18T17:32:18.269Z,4.17
2022-12-18T17:34:48.051Z,4.24
2022-12-18T17:37:16.480Z,4.28
2022-12-18T17:39:44.979Z,4.37
2022-12-18T17:42:15.736Z,4.34
2022-12-18T17:44:44.948Z,4.37
2022-12-18T17:47:14.134Z,4.32
2022-12-18T17:49:42.758Z,4.37
2022-12-18T17:52:11.407Z,4.34
2022-12-18T17:54:41.929Z,4.26
2022-12-18T17:57:10.528Z,4.34
2022-12-18T17:59:38.944Z,4.45
2022-12-18T18:02:11.334Z,4.41
2022-12-18T18:04:40.770Z,4.48
2022-12-18T18:07:10.292Z,4.44
2022-12-18T18:09:38.755Z,4.47
2022-12-18T18:12:25.628Z,4.37
2022-12-18T18:14:54.425Z,4.31
2022-12-18T18:17:23.216Z,4.35
2022-12-18T18:19:51.569Z,4.53
2022-12-18T18:22:20.072Z,4.49
2022-12-18T18:24:48.761Z,4.41
2022-12-18T18:27:17.273Z,4.42
2022-12-18T18:29:45.818Z,4.35
2022-12-18T18:32:14.240Z,4.42
2022-12-18T18:34:42.744Z,4.45
2022-12-18T18:37:12.057Z,4.51
2022-12-18T18:39:40.597Z,4.47
2022-12-18T18:42:09.107Z,4.46
2022-12-18T18:44:37.472Z,4.44
2022-12-18T18:47:09.409Z,4.38
2022-12-18T18:49:38.294Z,4.48
2022-12-18T18:52:07.395Z,4.36
2022-12-18T18:54:35.818Z,4.40
2022-12-18T18:57:20.241Z,4.60
2022-12-18T18:59:49.506Z,4.62
2022-12-18T19:02:18.163Z,4.69
2022-12-18T19:04:47.127Z,4.74
2022-12-18T19:07:29.346Z,4.75
2022-12-18T19:10:04.092Z,4.73
2022-12-18T19:12:53.697Z,4.80
2022-12-18T19:15:22.288Z,4.69
2022-12-18T19:17:50.993Z,4.74
2022-12-18T19:20:19.655Z,4.77
2022-12-18T19:22:55.340Z,4.84
2022-12-18T19:25:38.412Z,4.82
2022-12-18T19:28:13.246Z,4.84
2022-12-18T19:30:58.975Z,4.92
2022-12-18T19:33:45.202Z,4.95
2022-12-18T19:36:22.930Z,4.92
2022-12-18T19:38:54.263Z,4.87
2022-12-18T19:41:23.958Z,4.70
2022-12-18T19:43:54.142Z,4.77
2022-12-18T19:46:23.764Z,4.70
2022-12-18T19:48:52.417Z,4.77
2022-12-18T19:51:24.679Z,4.67
2022-12-18T19:53:58.144Z,4.68
2022-12-18T19:56:32.548Z,4.68
2022-12-18T19:59:02.767Z,4.79
2022-12-18T20:01:31.487Z,4.74
2022-12-18T20:04:01.132Z,4.65
2022-12-18T20:06:55.558Z,4.72
2022-12-18T20:09:24.111Z,4.80
2022-12-18T20:11:53.528Z,4.75
2022-12-18T20:14:23.045Z,4.76
2022-12-18T20:16:52.542Z,4.62
2022-12-18T20:19:22.324Z,4.62
2022-12-18T20:21:51.148Z,4.63
2022-12-18T20:24:19.629Z,4.69
2022-12-18T20:26:48.037Z,4.71
2022-12-18T20:29:16.441Z,4.79
2022-12-18T20:31:44.891Z,4.77
2022-12-18T20:34:13.461Z,4.71
2022-12-18T20:36:42.308Z,4.62
2022-12-18T20:39:13.301Z,4.59
2022-12-18T20:41:41.939Z,4.51
2022-12-18T20:44:23.112Z,4.65
2022-12-18T20:46:57.882Z,4.50
2022-12-18T20:49:27.538Z,4.59
2022-12-18T20:51:57.858Z,4.53
2022-12-18T20:54:27.609Z,4.60
2022-12-18T20:56:56.791Z,4.53
2022-12-18T20:59:25.765Z,4.55
2022-12-18T21:01:54.876Z,4.63
2022-12-18T21:04:23.981Z,4.65
2022-12-18T21:06:59.142Z,4.62
2022-12-18T21:09:37.739Z,4.55
2022-12-18T21:12:34.895Z,4.67
2022-12-18T21:15:13.090Z,4.57
2022-12-18T21:17:44.411Z,4.56
2022-12-18T21:20:18.146Z,4.55
2022-12-18T21:22:49.187Z,4.68
2022-12-18T21:25:17.907Z,4.77
2022-12-18T21:27:46.293Z,4.73
2022-12-18T21:30:15.061Z,4.82
2022-12-18T21:32:43.644Z,4.72
2022-12-18T21:35:12.234Z,4.68
2022-12-18T21:37:40.663Z,4.77
2022-12-18T21:40:09.502Z,4.93
2022-12-18T21:42:56.575Z,4.75
2022-12-18T21:45:24.923Z,4.81
2022-12-18T21:47:53.315Z,4.72
2022-12-18T21:50:21.735Z,4.82
2022-12-18T21:52:50.153Z,4.79
2022-12-18T21:55:18.628Z,4.93
2022-12-18T21:57:47.040Z,4.80
2022-12-18T22:00:18.371Z,4.91
2022-12-18T22:03:05.647Z,4.85
2022-12-18T22:05:37.235Z,4.63
2022-12-18T22:08:06.859Z,4.75
2022-12-18T22:10:36.502Z,4.88
2022-12-18T22:13:06.729Z,5.01
2022-12-18T22:15:35.238Z,5.00
2022-12-18T22:18:03.798Z,5.04
2022-12-18T22:20:32.361Z,5.08
2022-12-18T22:23:05.721Z,5.14
2022-12-18T22:25:36.273Z,5.09
2022-12-18T22:28:26.821Z,5.21
2022-12-18T22:30:59.142Z,5.21
2022-12-18T22:33:28.368Z,5.09
2022-12-18T22:35:56.783Z,5.19
2022-12-18T22:38:25.340Z,5.31
2022-12-18T22:40:54.739Z,5.49
2022-12-18T22:43:23.287Z,5.49
2022-12-18T22:45:51.664Z,5.42
2022-12-18T22:48:20.393Z,5.50
2022-12-18T22:50:49.561Z,5.36
2022-12-18T22:53:19.329Z,5.27
2022-12-18T22:55:47.769Z,5.44
2022-12-18T22:58:16.154Z,5.65
2022-12-18T23:00:44.624Z,5.78
2022-12-18T23:03:13.209Z,5.77
2022-12-18T23:05:41.702Z,5.96
2022-12-18T23:08:10.165Z,5.86
2022-12-18T23:10:39.381Z,5.86
2022-12-18T23:13:07.797Z,5.96
2022-12-18T23:15:41.972Z,5.74
2022-12-18T23:18:10.379Z,5.71
2022-12-18T23:20:38.877Z,6.03
2022-12-18T23:23:08.687Z,5.87
2022-12-18T23:25:37.394Z,6.01
2022-12-18T23:28:06.357Z,5.96
2022-12-18T23:30:35.090Z,5.82
2022-12-18T23:33:03.583Z,5.91
2022-12-18T23:35:32.058Z,6.16
2022-12-18T23:38:00.874Z,6.13
2022-12-18T23:40:29.923Z,6.36
2022-12-18T23:42:59.129Z,6.35
2022-12-18T23:45:27.546Z,6.16
2022-12-18T23:47:56.111Z,6.25
2022-12-18T23:50:29.438Z,6.19
2022-12-18T23:53:04.878Z,6.14
2022-12-18T23:55:39.682Z,6.06
2022-12-18T23:58:19.367Z,6.01
